sensor_id;sensor_type;location;lat;lon;timestamp;pressure;altitude;pressure_sealevel;temperature;humidity
29383;BME280;16365;51.598;7.668;2023-01-31T00:01:29;101686.72;;;11.00;46.41
29383;BME280;16365;51.598;7.668;2023-01-31T00:03:58;101692.88;;;10.97;46.51
29383;BME280;16365;51.598;7.668;2023-01-31T00:08:52;101693.28;;;10.91;46.20
29383;BME280;16365;51.598;7.668;2023-01-31T00:11:19;101690.00;;;10.89;46.60
29383;BME280;16365;51.598;7.668;2023-01-31T00:13:46;101695.03;;;10.87;46.53
29383;BME280;16365;51.598;7.668;2023-01-31T00:16:14;101692.88;;;10.84;46.34
29383;BME280;16365;51.598;7.668;2023-01-31T00:18:41;101695.13;;;10.81;46.49
29383;BME280;16365;51.598;7.668;2023-01-31T00:23:34;101683.31;;;10.76;46.78
29383;BME280;16365;51.598;7.668;2023-01-31T00:28:40;101680.63;;;10.71;46.80
29383;BME280;16365;51.598;7.668;2023-01-31T00:31:07;101699.53;;;10.69;46.66
29383;BME280;16365;51.598;7.668;2023-01-31T00:33:34;101699.81;;;10.67;46.74
29383;BME280;16365;51.598;7.668;2023-01-31T00:36:02;101698.50;;;10.65;46.77
29383;BME280;16365;51.598;7.668;2023-01-31T00:38:28;101697.66;;;10.64;46.90
29383;BME280;16365;51.598;7.668;2023-01-31T00:40:54;101689.03;;;10.66;46.58
29383;BME280;16365;51.598;7.668;2023-01-31T00:43:21;101685.44;;;10.65;46.85
29383;BME280;16365;51.598;7.668;2023-01-31T00:45:47;101695.91;;;10.68;46.99
29383;BME280;16365;51.598;7.668;2023-01-31T00:48:14;101696.13;;;10.72;47.18
29383;BME280;16365;51.598;7.668;2023-01-31T00:50:40;101688.34;;;10.74;47.09
29383;BME280;16365;51.598;7.668;2023-01-31T00:53:06;101683.31;;;10.76;47.38
29383;BME280;16365;51.598;7.668;2023-01-31T00:55:33;101681.03;;;10.78;47.21
29383;BME280;16365;51.598;7.668;2023-01-31T00:58:00;101680.22;;;10.77;47.31
29383;BME280;16365;51.598;7.668;2023-01-31T01:00:27;101672.72;;;10.78;46.97
29383;BME280;16365;51.598;7.668;2023-01-31T01:02:53;101676.63;;;10.77;47.17
29383;BME280;16365;51.598;7.668;2023-01-31T01:05:20;101683.00;;;10.77;47.30
29383;BME280;16365;51.598;7.668;2023-01-31T01:07:46;101675.81;;;10.76;46.94
29383;BME280;16365;51.598;7.668;2023-01-31T01:10:13;101680.53;;;10.76;46.96
29383;BME280;16365;51.598;7.668;2023-01-31T01:12:39;101685.56;;;10.74;47.14
29383;BME280;16365;51.598;7.668;2023-01-31T01:15:05;101688.34;;;10.74;47.18
29383;BME280;16365;51.598;7.668;2023-01-31T01:17:32;101690.31;;;10.73;46.90
29383;BME280;16365;51.598;7.668;2023-01-31T01:19:59;101690.31;;;10.73;46.77
29383;BME280;16365;51.598;7.668;2023-01-31T01:22:29;101685.56;;;10.74;46.79
29383;BME280;16365;51.598;7.668;2023-01-31T01:24:56;101682.81;;;10.74;46.87
29383;BME280;16365;51.598;7.668;2023-01-31T01:27:22;101693.06;;;10.73;47.19
29383;BME280;16365;51.598;7.668;2023-01-31T01:29:48;101686.69;;;10.73;47.08
29383;BME280;16365;51.598;7.668;2023-01-31T01:32:15;101691.94;;;10.74;47.36
29383;BME280;16365;51.598;7.668;2023-01-31T01:34:41;101681.34;;;10.76;47.03
29383;BME280;16365;51.598;7.668;2023-01-31T01:37:08;101675.81;;;10.76;46.98
29383;BME280;16365;51.598;7.668;2023-01-31T01:39:46;101673.56;;;10.78;47.17
29383;BME280;16365;51.598;7.668;2023-01-31T01:42:16;101661.34;;;10.79;47.14
29383;BME280;16365;51.598;7.668;2023-01-31T01:47:17;101675.19;;;10.79;47.05
29383;BME280;16365;51.598;7.668;2023-01-31T01:49:46;101676.63;;;10.77;46.94
29383;BME280;16365;51.598;7.668;2023-01-31T01:52:13;101676.94;;;10.75;46.93
29383;BME280;16365;51.598;7.668;2023-01-31T01:54:43;101683.09;;;10.72;46.86
29383;BME280;16365;51.598;7.668;2023-01-31T01:57:11;101679.28;;;10.68;46.95
29383;BME280;16365;51.598;7.668;2023-01-31T01:59:42;101685.13;;;10.67;47.02
29383;BME280;16365;51.598;7.668;2023-01-31T02:02:09;101684.09;;;10.63;46.96
29383;BME280;16365;51.598;7.668;2023-01-31T02:04:36;101672.50;;;10.61;47.13
29383;BME280;16365;51.598;7.668;2023-01-31T02:07:04;101673.91;;;10.58;47.09
29383;BME280;16365;51.598;7.668;2023-01-31T02:12:18;101688.09;;;10.57;47.21
29383;BME280;16365;51.598;7.668;2023-01-31T02:14:44;101697.53;;;10.55;47.34
29383;BME280;16365;51.598;7.668;2023-01-31T02:17:16;101695.91;;;10.54;47.26
29383;BME280;16365;51.598;7.668;2023-01-31T02:22:26;101703.09;;;10.55;47.20
29383;BME280;16365;51.598;7.668;2023-01-31T02:38:28;101721.91;;;10.72;47.58
29383;BME280;16365;51.598;7.668;2023-01-31T02:43:59;101707.66;;;10.79;47.69
29383;BME280;16365;51.598;7.668;2023-01-31T02:52:29;101710.25;;;10.89;47.40
29383;BME280;16365;51.598;7.668;2023-01-31T02:54:55;101714.34;;;10.92;47.24
29383;BME280;16365;51.598;7.668;2023-01-31T02:57:44;101698.25;;;10.94;47.46
29383;BME280;16365;51.598;7.668;2023-01-31T03:00:12;101704.59;;;10.94;47.25
29383;BME280;16365;51.598;7.668;2023-01-31T03:02:39;101711.78;;;10.95;47.60
29383;BME280;16365;51.598;7.668;2023-01-31T03:05:05;101712.94;;;10.94;47.20
29383;BME280;16365;51.598;7.668;2023-01-31T03:07:33;101705.44;;;10.95;46.91
29383;BME280;16365;51.598;7.668;2023-01-31T03:15:13;101703.56;;;10.90;47.09
29383;BME280;16365;51.598;7.668;2023-01-31T03:17:57;101693.59;;;10.89;46.94
29383;BME280;16365;51.598;7.668;2023-01-31T03:23:21;101681.16;;;10.87;47.16
29383;BME280;16365;51.598;7.668;2023-01-31T03:25:52;101678.69;;;10.85;47.21
29383;BME280;16365;51.598;7.668;2023-01-31T03:28:23;101670.69;;;10.84;47.05
29383;BME280;16365;51.598;7.668;2023-01-31T03:30:53;101669.56;;;10.85;47.22
29383;BME280;16365;51.598;7.668;2023-01-31T03:33:23;101665.44;;;10.82;47.08
29383;BME280;16365;51.598;7.668;2023-01-31T03:35:51;101653.50;;;10.81;47.24
29383;BME280;16365;51.598;7.668;2023-01-31T03:38:26;101658.25;;;10.81;46.62
29383;BME280;16365;51.598;7.668;2023-01-31T03:40:56;101648.28;;;10.80;47.12
29383;BME280;16365;51.598;7.668;2023-01-31T03:46:52;101637.50;;;10.78;46.99
29383;BME280;16365;51.598;7.668;2023-01-31T03:48:48;101635.56;;;10.79;47.39
29383;BME280;16365;51.598;7.668;2023-01-31T03:51:19;101635.22;;;10.80;47.26
29383;BME280;16365;51.598;7.668;2023-01-31T03:53:51;101628.53;;;10.81;47.32
29383;BME280;16365;51.598;7.668;2023-01-31T03:58:47;101631.03;;;10.83;47.35
29383;BME280;16365;51.598;7.668;2023-01-31T04:01:16;101631.84;;;10.84;47.04
29383;BME280;16365;51.598;7.668;2023-01-31T04:03:48;101629.91;;;10.84;47.11
29383;BME280;16365;51.598;7.668;2023-01-31T04:06:16;101634.63;;;10.84;47.22
29383;BME280;16365;51.598;7.668;2023-01-31T04:08:43;101632.03;;;10.87;47.14
29383;BME280;16365;51.598;7.668;2023-01-31T04:11:10;101627.03;;;10.89;47.27
29383;BME280;16365;51.598;7.668;2023-01-31T04:13:38;101623.94;;;10.91;47.19
29383;BME280;16365;51.598;7.668;2023-01-31T04:16:05;101620.03;;;10.92;47.16
29383;BME280;16365;51.598;7.668;2023-01-31T04:18:31;101620.03;;;10.92;47.34
29383;BME280;16365;51.598;7.668;2023-01-31T04:21:01;101618.06;;;10.92;47.29
29383;BME280;16365;51.598;7.668;2023-01-31T04:23:30;101621.69;;;10.93;47.20
29383;BME280;16365;51.598;7.668;2023-01-31T04:25:57;101613.66;;;10.91;47.24
29383;BME280;16365;51.598;7.668;2023-01-31T04:28:23;101618.69;;;10.89;46.82
29383;BME280;16365;51.598;7.668;2023-01-31T04:30:53;101615.94;;;10.89;47.23
29383;BME280;16365;51.598;7.668;2023-01-31T04:33:20;101620.13;;;10.87;47.28
29383;BME280;16365;51.598;7.668;2023-01-31T04:35:47;101619.31;;;10.86;47.03
29383;BME280;16365;51.598;7.668;2023-01-31T04:38:13;101615.22;;;10.84;46.99
29383;BME280;16365;51.598;7.668;2023-01-31T04:40:39;101609.66;;;10.84;47.25
29383;BME280;16365;51.598;7.668;2023-01-31T04:43:05;101602.44;;;10.82;47.13
29383;BME280;16365;51.598;7.668;2023-01-31T04:45:32;101602.75;;;10.81;47.10
29383;BME280;16365;51.598;7.668;2023-01-31T04:47:58;101596.41;;;10.80;47.23
29383;BME280;16365;51.598;7.668;2023-01-31T04:50:25;101590.03;;;10.80;47.15
29383;BME280;16365;51.598;7.668;2023-01-31T04:52:51;101587.25;;;10.80;47.07
29383;BME280;16365;51.598;7.668;2023-01-31T04:55:17;101585.63;;;10.79;46.95
29383;BME280;16365;51.598;7.668;2023-01-31T04:57:44;101584.81;;;10.78;47.08
29383;BME280;16365;51.598;7.668;2023-01-31T05:00:11;101582.84;;;10.79;47.08
29383;BME280;16365;51.598;7.668;2023-01-31T05:02:37;101584.81;;;10.78;47.17
29383;BME280;16365;51.598;7.668;2023-01-31T05:05:04;101586.44;;;10.79;47.17
29383;BME280;16365;51.598;7.668;2023-01-31T05:07:31;101587.56;;;10.78;47.32
29383;BME280;16365;51.598;7.668;2023-01-31T05:09:57;101591.97;;;10.79;47.17
29383;BME280;16365;51.598;7.668;2023-01-31T05:12:24;101588.41;;;10.79;47.21
29383;BME280;16365;51.598;7.668;2023-01-31T05:14:50;101582.53;;;10.80;47.31
29383;BME280;16365;51.598;7.668;2023-01-31T05:17:19;101579.75;;;10.80;47.27
29383;BME280;16365;51.598;7.668;2023-01-31T05:19:51;101567.84;;;10.80;46.98
29383;BME280;16365;51.598;7.668;2023-01-31T05:22:17;101554.78;;;10.80;47.19
29383;BME280;16365;51.598;7.668;2023-01-31T05:24:47;101559.19;;;10.81;47.25
29383;BME280;16365;51.598;7.668;2023-01-31T05:27:15;101553.66;;;10.81;47.20
29383;BME280;16365;51.598;7.668;2023-01-31T05:29:43;101545.34;;;10.81;47.22
29383;BME280;16365;51.598;7.668;2023-01-31T05:32:11;101537.31;;;10.80;47.13
29383;BME280;16365;51.598;7.668;2023-01-31T05:34:38;101543.69;;;10.80;47.18
29383;BME280;16365;51.598;7.668;2023-01-31T05:37:04;101540.09;;;10.80;47.09
29383;BME280;16365;51.598;7.668;2023-01-31T05:39:30;101539.28;;;10.79;47.25
29383;BME280;16365;51.598;7.668;2023-01-31T05:41:58;101529.50;;;10.82;46.92
29383;BME280;16365;51.598;7.668;2023-01-31T05:44:25;101533.41;;;10.81;47.48
29383;BME280;16365;51.598;7.668;2023-01-31T05:46:51;101539.50;;;10.83;47.38
29383;BME280;16365;51.598;7.668;2023-01-31T05:49:18;101529.22;;;10.84;47.07
29383;BME280;16365;51.598;7.668;2023-01-31T05:51:44;101529.41;;;10.87;47.35
29383;BME280;16365;51.598;7.668;2023-01-31T05:54:13;101533.84;;;10.88;47.31
29383;BME280;16365;51.598;7.668;2023-01-31T05:56:39;101529.59;;;10.91;47.50
29383;BME280;16365;51.598;7.668;2023-01-31T05:59:06;101527.66;;;10.91;47.22
29383;BME280;16365;51.598;7.668;2023-01-31T06:01:32;101523.25;;;10.90;47.54
29383;BME280;16365;51.598;7.668;2023-01-31T06:04:00;101512.97;;;10.91;47.34
29383;BME280;16365;51.598;7.668;2023-01-31T06:06:27;101517.06;;;10.93;47.29
29383;BME280;16365;51.598;7.668;2023-01-31T06:08:56;101510.41;;;10.94;47.33
29383;BME280;16365;51.598;7.668;2023-01-31T06:11:22;101512.03;;;10.95;47.26
29383;BME280;16365;51.598;7.668;2023-01-31T06:13:50;101513.66;;;10.96;47.46
29383;BME280;16365;51.598;7.668;2023-01-31T06:16:17;101493.09;;;10.97;47.37
29383;BME280;16365;51.598;7.668;2023-01-31T06:18:43;101486.44;;;10.98;47.53
29383;BME280;16365;51.598;7.668;2023-01-31T06:21:10;101493.63;;;10.99;47.36
29383;BME280;16365;51.598;7.668;2023-01-31T06:23:37;101496.91;;;11.01;47.64
29383;BME280;16365;51.598;7.668;2023-01-31T06:26:05;101502.44;;;11.01;47.45
29383;BME280;16365;51.598;7.668;2023-01-31T06:28:33;101497.44;;;11.03;47.14
29383;BME280;16365;51.598;7.668;2023-01-31T06:31:04;101504.63;;;11.04;47.27
29383;BME280;16365;51.598;7.668;2023-01-31T06:33:31;101499.88;;;11.05;47.20
29383;BME280;16365;51.598;7.668;2023-01-31T06:36:12;101510.38;;;11.08;47.28
29383;BME280;16365;51.598;7.668;2023-01-31T06:38:38;101511.19;;;11.09;47.39
29383;BME280;16365;51.598;7.668;2023-01-31T06:41:04;101507.28;;;11.10;47.32
29383;BME280;16365;51.598;7.668;2023-01-31T06:43:31;101503.34;;;11.11;47.33
29383;BME280;16365;51.598;7.668;2023-01-31T06:45:58;101505.84;;;11.12;47.60
29383;BME280;16365;51.598;7.668;2023-01-31T06:48:24;101497.53;;;11.12;47.09
29383;BME280;16365;51.598;7.668;2023-01-31T06:50:51;101507.47;;;11.13;46.95
29383;BME280;16365;51.598;7.668;2023-01-31T06:53:17;101505.53;;;11.14;47.37
29383;BME280;16365;51.598;7.668;2023-01-31T06:55:43;101520.72;;;11.16;47.14
29383;BME280;16365;51.598;7.668;2023-01-31T06:58:10;101530.38;;;11.19;47.33
29383;BME280;16365;51.598;7.668;2023-01-31T07:00:36;101533.97;;;11.19;47.38
29383;BME280;16365;51.598;7.668;2023-01-31T07:03:02;101542.50;;;11.23;47.43
29383;BME280;16365;51.598;7.668;2023-01-31T07:05:29;101538.28;;;11.25;47.19
29383;BME280;16365;51.598;7.668;2023-01-31T07:07:59;101537.66;;;11.28;47.47
29383;BME280;16365;51.598;7.668;2023-01-31T07:10:25;101524.59;;;11.29;47.55
29383;BME280;16365;51.598;7.668;2023-01-31T07:12:51;101523.97;;;11.32;47.25
29383;BME280;16365;51.598;7.668;2023-01-31T07:15:18;101505.38;;;11.32;47.69
29383;BME280;16365;51.598;7.668;2023-01-31T07:17:45;101517.78;;;11.35;47.45
29383;BME280;16365;51.598;7.668;2023-01-31T07:20:11;101512.75;;;11.37;47.08
29383;BME280;16365;51.598;7.668;2023-01-31T07:22:38;101518.00;;;11.39;47.41
29383;BME280;16365;51.598;7.668;2023-01-31T07:25:04;101524.88;;;11.41;47.39
29383;BME280;16365;51.598;7.668;2023-01-31T07:27:31;101514.59;;;11.42;47.41
29383;BME280;16365;51.598;7.668;2023-01-31T07:29:57;101526.69;;;11.46;47.67
29383;BME280;16365;51.598;7.668;2023-01-31T07:32:27;101530.31;;;11.46;47.34
29383;BME280;16365;51.598;7.668;2023-01-31T07:34:53;101529.16;;;11.47;47.37
29383;BME280;16365;51.598;7.668;2023-01-31T07:37:19;101521.34;;;11.49;47.53
29383;BME280;16365;51.598;7.668;2023-01-31T07:39:46;101522.69;;;11.52;47.35
29383;BME280;16365;51.598;7.668;2023-01-31T07:42:12;101504.06;;;11.52;47.60
29383;BME280;16365;51.598;7.668;2023-01-31T07:44:39;101498.19;;;11.54;47.44
29383;BME280;16365;51.598;7.668;2023-01-31T07:47:05;101499.81;;;11.55;47.28
29383;BME280;16365;51.598;7.668;2023-01-31T07:49:32;101520.59;;;11.57;47.55
29383;BME280;16365;51.598;7.668;2023-01-31T07:51:58;101530.56;;;11.58;47.48
29383;BME280;16365;51.598;7.668;2023-01-31T07:54:26;101529.41;;;11.59;47.65
29383;BME280;16365;51.598;7.668;2023-01-31T07:56:52;101520.47;;;11.63;47.54
29383;BME280;16365;51.598;7.668;2023-01-31T07:59:19;101513.97;;;11.67;47.67
29383;BME280;16365;51.598;7.668;2023-01-31T08:01:45;101512.50;;;11.70;47.40
29383;BME280;16365;51.598;7.668;2023-01-31T08:04:32;101508.78;;;11.74;47.28
29383;BME280;16365;51.598;7.668;2023-01-31T08:06:59;101493.44;;;11.77;47.62
29383;BME280;16365;51.598;7.668;2023-01-31T08:09:28;101487.56;;;11.78;47.26
29383;BME280;16365;51.598;7.668;2023-01-31T08:11:54;101488.09;;;11.80;47.13
29383;BME280;16365;51.598;7.668;2023-01-31T08:14:21;101477.50;;;11.82;47.63
29383;BME280;16365;51.598;7.668;2023-01-31T08:16:51;101477.16;;;11.84;47.42
29383;BME280;16365;51.598;7.668;2023-01-31T08:19:17;101457.41;;;11.86;47.65
29383;BME280;16365;51.598;7.668;2023-01-31T08:21:43;101461.81;;;11.87;46.65
29383;BME280;16365;51.598;7.668;2023-01-31T08:24:10;101467.06;;;11.88;47.29
29383;BME280;16365;51.598;7.668;2023-01-31T08:26:36;101461.19;;;11.90;46.82
29383;BME280;16365;51.598;7.668;2023-01-31T08:29:03;101452.88;;;11.90;46.77
29383;BME280;16365;51.598;7.668;2023-01-31T08:31:29;101453.34;;;11.92;47.16
29383;BME280;16365;51.598;7.668;2023-01-31T08:33:55;101451.06;;;11.94;46.96
29383;BME280;16365;51.598;7.668;2023-01-31T08:36:24;101456.31;;;11.95;47.01
29383;BME280;16365;51.598;7.668;2023-01-31T08:38:51;101444.88;;;11.97;47.15
29383;BME280;16365;51.598;7.668;2023-01-31T08:41:18;101446.50;;;11.98;47.38
29383;BME280;16365;51.598;7.668;2023-01-31T08:43:45;101442.28;;;12.00;47.27
29383;BME280;16365;51.598;7.668;2023-01-31T08:46:24;101447.84;;;12.00;46.45
29383;BME280;16365;51.598;7.668;2023-01-31T08:48:51;101447.19;;;12.03;46.95
29383;BME280;16365;51.598;7.668;2023-01-31T08:51:17;101438.22;;;12.06;47.36
29383;BME280;16365;51.598;7.668;2023-01-31T08:53:43;101437.06;;;12.07;47.23
29383;BME280;16365;51.598;7.668;2023-01-31T08:56:10;101442.97;;;12.06;46.96
29383;BME280;16365;51.598;7.668;2023-01-31T08:58:38;101443.44;;;12.08;46.95
29383;BME280;16365;51.598;7.668;2023-01-31T09:01:06;101442.63;;;12.07;47.01
29383;BME280;16365;51.598;7.668;2023-01-31T09:03:33;101439.84;;;12.07;47.25
29383;BME280;16365;51.598;7.668;2023-01-31T09:06:00;101443.78;;;12.06;46.73
29383;BME280;16365;51.598;7.668;2023-01-31T09:08:28;101443.28;;;12.04;47.25
29383;BME280;16365;51.598;7.668;2023-01-31T09:10:56;101448.34;;;12.02;46.92
29383;BME280;16365;51.598;7.668;2023-01-31T09:13:23;101441.47;;;12.00;47.39
29383;BME280;16365;51.598;7.668;2023-01-31T09:15:56;101430.97;;;11.97;46.66
29383;BME280;16365;51.598;7.668;2023-01-31T09:18:23;101423.28;;;11.94;47.04
29383;BME280;16365;51.598;7.668;2023-01-31T09:20:49;101426.72;;;11.91;46.82
29383;BME280;16365;51.598;7.668;2023-01-31T09:23:16;101409.53;;;11.89;46.83
29383;BME280;16365;51.598;7.668;2023-01-31T09:25:54;101403.97;;;11.89;47.23
29383;BME280;16365;51.598;7.668;2023-01-31T09:28:21;101409.03;;;11.87;46.83
29383;BME280;16365;51.598;7.668;2023-01-31T09:30:48;101412.16;;;11.85;47.50
29383;BME280;16365;51.598;7.668;2023-01-31T09:33:14;101405.78;;;11.85;47.17
29383;BME280;16365;51.598;7.668;2023-01-31T09:35:41;101404.72;;;11.80;47.59
29383;BME280;16365;51.598;7.668;2023-01-31T09:38:07;101405.44;;;11.86;47.29
29383;BME280;16365;51.598;7.668;2023-01-31T09:40:34;101395.97;;;11.87;47.42
29383;BME280;16365;51.598;7.668;2023-01-31T09:43:02;101401.50;;;11.87;47.31
29383;BME280;16365;51.598;7.668;2023-01-31T09:45:31;101395.47;;;11.85;47.50
29383;BME280;16365;51.598;7.668;2023-01-31T09:47:58;101395.63;;;11.89;47.55
29383;BME280;16365;51.598;7.668;2023-01-31T09:50:45;101408.41;;;11.90;47.64
29383;BME280;16365;51.598;7.668;2023-01-31T09:53:15;101402.34;;;11.88;47.30
29383;BME280;16365;51.598;7.668;2023-01-31T09:55:56;101387.28;;;11.89;47.41
29383;BME280;16365;51.598;7.668;2023-01-31T09:58:28;101386.19;;;11.90;47.40
29383;BME280;16365;51.598;7.668;2023-01-31T10:01:02;101387.47;;;11.92;47.79
29383;BME280;16365;51.598;7.668;2023-01-31T10:03:44;101386.66;;;11.92;47.50
29383;BME280;16365;51.598;7.668;2023-01-31T10:06:19;101386.53;;;11.97;47.64
29383;BME280;16365;51.598;7.668;2023-01-31T10:11:36;101375.44;;;12.05;47.86
29383;BME280;16365;51.598;7.668;2023-01-31T10:16:37;101365.47;;;12.13;47.28
29383;BME280;16365;51.598;7.668;2023-01-31T10:19:08;101366.00;;;12.15;47.75
29383;BME280;16365;51.598;7.668;2023-01-31T10:21:48;101364.50;;;12.18;47.44
29383;BME280;16365;51.598;7.668;2023-01-31T10:24:28;101366.66;;;12.21;48.07
29383;BME280;16365;51.598;7.668;2023-01-31T10:26:59;101360.75;;;12.22;47.65
29383;BME280;16365;51.598;7.668;2023-01-31T10:29:33;101368.47;;;12.25;47.75
29383;BME280;16365;51.598;7.668;2023-01-31T10:32:03;101368.66;;;12.29;48.19
29383;BME280;16365;51.598;7.668;2023-01-31T10:34:41;101337.72;;;12.30;47.79
29383;BME280;16365;51.598;7.668;2023-01-31T10:37:19;101336.91;;;12.30;47.82
29383;BME280;16365;51.598;7.668;2023-01-31T10:39:48;101353.25;;;12.31;47.44
29383;BME280;16365;51.598;7.668;2023-01-31T10:42:35;101341.31;;;12.31;47.19
29383;BME280;16365;51.598;7.668;2023-01-31T10:58:28;101305.84;;;12.37;47.55
29383;BME280;16365;51.598;7.668;2023-01-31T11:00:54;101302.75;;;12.38;47.71
29383;BME280;16365;51.598;7.668;2023-01-31T11:03:21;101290.47;;;12.39;47.35
29383;BME280;16365;51.598;7.668;2023-01-31T11:05:51;101307.16;;;12.39;47.79
29383;BME280;16365;51.598;7.668;2023-01-31T11:10:52;101298.50;;;12.41;47.92
29383;BME280;16365;51.598;7.668;2023-01-31T11:13:19;101296.53;;;12.41;48.14
29383;BME280;16365;51.598;7.668;2023-01-31T11:15:46;101305.69;;;12.42;47.67
29383;BME280;16365;51.598;7.668;2023-01-31T11:18:14;101296.22;;;12.43;47.99
29383;BME280;16365;51.598;7.668;2023-01-31T11:20:45;101286.22;;;12.42;48.25
29383;BME280;16365;51.598;7.668;2023-01-31T11:23:13;101285.09;;;12.43;47.92
29383;BME280;16365;51.598;7.668;2023-01-31T11:25:44;101281.47;;;12.42;47.90
29383;BME280;16365;51.598;7.668;2023-01-31T11:28:18;101273.97;;;12.43;47.74
29383;BME280;16365;51.598;7.668;2023-01-31T11:30:47;101264.78;;;12.42;47.96
29383;BME280;16365;51.598;7.668;2023-01-31T11:36:02;101264.78;;;12.42;47.88
29383;BME280;16365;51.598;7.668;2023-01-31T11:38:32;101265.28;;;12.44;47.60
29383;BME280;16365;51.598;7.668;2023-01-31T11:40:58;101268.06;;;12.44;48.45
29383;BME280;16365;51.598;7.668;2023-01-31T11:43:25;101257.75;;;12.45;48.42
29383;BME280;16365;51.598;7.668;2023-01-31T11:45:58;101269.38;;;12.47;47.67
29383;BME280;16365;51.598;7.668;2023-01-31T11:48:26;101238.78;;;12.47;48.15
29383;BME280;16365;51.598;7.668;2023-01-31T11:50:55;101251.22;;;12.49;47.85
29383;BME280;16365;51.598;7.668;2023-01-31T11:53:37;101243.84;;;12.53;48.00
29383;BME280;16365;51.598;7.668;2023-01-31T11:56:13;101241.56;;;12.55;48.17
29383;BME280;16365;51.598;7.668;2023-01-31T11:58:40;101232.56;;;12.58;48.05
29383;BME280;16365;51.598;7.668;2023-01-31T12:03:39;101244.66;;;12.63;48.55
29383;BME280;16365;51.598;7.668;2023-01-31T12:06:28;101239.25;;;12.66;47.80
29383;BME280;16365;51.598;7.668;2023-01-31T12:08:57;101236.97;;;12.68;48.42
29383;BME280;16365;51.598;7.668;2023-01-31T12:11:31;101245.47;;;12.72;47.62
29383;BME280;16365;51.598;7.668;2023-01-31T12:16:29;101224.19;;;12.76;48.02
29383;BME280;16365;51.598;7.668;2023-01-31T12:21:33;101231.06;;;12.78;48.11
29383;BME280;16365;51.598;7.668;2023-01-31T12:32:15;101201.09;;;12.75;47.38
29383;BME280;16365;51.598;7.668;2023-01-31T12:37:31;101207.00;;;12.74;47.33
29383;BME280;16365;51.598;7.668;2023-01-31T12:42:53;101194.72;;;12.75;48.08
29383;BME280;16365;51.598;7.668;2023-01-31T12:50:55;101200.44;;;12.78;47.69
29383;BME280;16365;51.598;7.668;2023-01-31T12:56:14;101191.28;;;12.78;48.03
29383;BME280;16365;51.598;7.668;2023-01-31T12:59:04;101191.28;;;12.78;47.67
29383;BME280;16365;51.598;7.668;2023-01-31T13:06:58;101187.34;;;12.79;47.82
29383;BME280;16365;51.598;7.668;2023-01-31T13:09:34;101193.38;;;12.81;47.87
29383;BME280;16365;51.598;7.668;2023-01-31T13:12:34;101186.19;;;12.80;47.89
29383;BME280;16365;51.598;7.668;2023-01-31T13:15:01;101190.59;;;12.81;48.62
29383;BME280;16365;51.598;7.668;2023-01-31T13:17:32;101191.13;;;12.83;47.36
29383;BME280;16365;51.598;7.668;2023-01-31T13:20:02;101190.28;;;12.82;47.65
29383;BME280;16365;51.598;7.668;2023-01-31T13:22:43;101202.59;;;12.81;47.27
29383;BME280;16365;51.598;7.668;2023-01-31T13:25:16;101200.09;;;12.80;47.53
29383;BME280;16365;51.598;7.668;2023-01-31T13:27:51;101198.00;;;12.77;47.98
29383;BME280;16365;51.598;7.668;2023-01-31T13:30:30;101207.00;;;12.74;47.95
29383;BME280;16365;51.598;7.668;2023-01-31T13:32:58;101211.59;;;12.70;48.19
29383;BME280;16365;51.598;7.668;2023-01-31T13:35:31;101205.88;;;12.66;48.47
29383;BME280;16365;51.598;7.668;2023-01-31T13:38:01;101202.94;;;12.63;48.27
29383;BME280;16365;51.598;7.668;2023-01-31T13:40:40;101207.19;;;12.60;47.83
29383;BME280;16365;51.598;7.668;2023-01-31T13:43:13;101196.72;;;12.57;47.82
29383;BME280;16365;51.598;7.668;2023-01-31T13:46:01;101195.41;;;12.54;47.54
29383;BME280;16365;51.598;7.668;2023-01-31T13:48:33;101191.31;;;12.52;48.37
29383;BME280;16365;51.598;7.668;2023-01-31T13:51:03;101192.81;;;12.49;48.68
29383;BME280;16365;51.598;7.668;2023-01-31T13:53:35;101188.72;;;12.47;48.32
29383;BME280;16365;51.598;7.668;2023-01-31T13:56:03;101177.94;;;12.45;48.57
29383;BME280;16365;51.598;7.668;2023-01-31T13:58:34;101187.41;;;12.44;48.30
29383;BME280;16365;51.598;7.668;2023-01-31T14:01:10;101188.56;;;12.43;48.69
29383;BME280;16365;51.598;7.668;2023-01-31T14:06:43;101183.00;;;12.43;49.12
29383;BME280;16365;51.598;7.668;2023-01-31T14:09:30;101183.81;;;12.44;49.13
29383;BME280;16365;51.598;7.668;2023-01-31T14:11:57;101173.00;;;12.42;49.27
29383;BME280;16365;51.598;7.668;2023-01-31T14:14:38;101173.53;;;12.44;49.05
29383;BME280;16365;51.598;7.668;2023-01-31T14:17:13;101169.91;;;12.44;48.91
29383;BME280;16365;51.598;7.668;2023-01-31T14:22:16;101169.91;;;12.44;48.98
29383;BME280;16365;51.598;7.668;2023-01-31T14:27:15;101187.09;;;12.46;48.59
29383;BME280;16365;51.598;7.668;2023-01-31T14:29:44;101177.13;;;12.45;48.78
29383;BME280;16365;51.598;7.668;2023-01-31T14:32:22;101183.50;;;12.45;48.54
29383;BME280;16365;51.598;7.668;2023-01-31T14:34:53;101176.31;;;12.44;48.91
29383;BME280;16365;51.598;7.668;2023-01-31T14:37:31;101182.69;;;12.45;48.33
29383;BME280;16365;51.598;7.668;2023-01-31T14:50:52;101175.47;;;12.44;49.08
29383;BME280;16365;51.598;7.668;2023-01-31T14:59:00;101185.63;;;12.40;49.34
29383;BME280;16365;51.598;7.668;2023-01-31T15:01:33;101192.00;;;12.40;49.11
29383;BME280;16365;51.598;7.668;2023-01-31T15:04:25;101185.13;;;12.38;49.55
29383;BME280;16365;51.598;7.668;2023-01-31T15:06:53;101195.75;;;12.35;49.30
29383;BME280;16365;51.598;7.668;2023-01-31T15:11:50;101206.25;;;12.39;49.38
29383;BME280;16365;51.598;7.668;2023-01-31T15:14:31;101227.34;;;12.40;48.92
29383;BME280;16365;51.598;7.668;2023-01-31T15:17:09;101215.06;;;12.41;49.37
29383;BME280;16365;51.598;7.668;2023-01-31T15:20:02;101228.31;;;12.44;49.08